sensor_id;sensor_type;location;lat;lon;timestamp;P1;durP1;ratioP1;P2;durP2;ratioP2
12591;SDS011;6361;52.120;5.108;2023-03-01T00:01:22;18.00;;;12.80;;
12591;SDS011;6361;52.120;5.108;2023-03-01T00:03:50;18.17;;;13.35;;
12591;SDS011;6361;52.120;5.108;2023-03-01T00:06:15;18.90;;;13.07;;
12591;SDS011;6361;52.120;5.108;2023-03-01T00:08:41;17.05;;;13.20;;
12591;SDS011;6361;52.120;5.108;2023-03-01T00:11:08;18.40;;;13.98;;
12591;SDS011;6361;52.120;5.108;2023-03-01T00:13:36;16.88;;;13.32;;
12591;SDS011;6361;52.120;5.108;2023-03-01T00:16:02;18.67;;;13.65;;
12591;SDS011;6361;52.120;5.108;2023-03-01T00:18:29;18.85;;;14.10;;
12591;SDS011;6361;52.120;5.108;2023-03-01T00:20:54;18.50;;;13.52;;
12591;SDS011;6361;52.120;5.108;2023-03-01T00:23:20;18.10;;;13.02;;
12591;SDS011;6361;52.120;5.108;2023-03-01T00:25:46;18.67;;;13.52;;
12591;SDS011;6361;52.120;5.108;2023-03-01T00:28:11;18.20;;;12.93;;
12591;SDS011;6361;52.120;5.108;2023-03-01T00:30:37;17.92;;;13.05;;
12591;SDS011;6361;52.120;5.108;2023-03-01T00:33:02;16.60;;;12.88;;
12591;SDS011;6361;52.120;5.108;2023-03-01T00:35:28;20.15;;;12.52;;
12591;SDS011;6361;52.120;5.108;2023-03-01T00:37:53;18.30;;;12.65;;
12591;SDS011;6361;52.120;5.108;2023-03-01T00:40:29;18.23;;;13.75;;
12591;SDS011;6361;52.120;5.108;2023-03-01T00:42:56;18.05;;;13.07;;
12591;SDS011;6361;52.120;5.108;2023-03-01T00:45:22;16.50;;;12.73;;
12591;SDS011;6361;52.120;5.108;2023-03-01T00:47:49;20.75;;;12.88;;
12591;SDS011;6361;52.120;5.108;2023-03-01T00:50:15;17.88;;;12.25;;
12591;SDS011;6361;52.120;5.108;2023-03-01T00:52:41;19.75;;;13.40;;
12591;SDS011;6361;52.120;5.108;2023-03-01T00:55:07;17.73;;;13.15;;
12591;SDS011;6361;52.120;5.108;2023-03-01T00:57:32;20.45;;;12.82;;
12591;SDS011;6361;52.120;5.108;2023-03-01T00:59:58;15.68;;;12.10;;
12591;SDS011;6361;52.120;5.108;2023-03-01T01:02:23;16.73;;;12.70;;
12591;SDS011;6361;52.120;5.108;2023-03-01T01:04:49;17.65;;;11.50;;
12591;SDS011;6361;52.120;5.108;2023-03-01T01:07:14;17.92;;;12.55;;
12591;SDS011;6361;52.120;5.108;2023-03-01T01:09:40;14.80;;;10.68;;
12591;SDS011;6361;52.120;5.108;2023-03-01T01:12:06;16.67;;;13.15;;
12591;SDS011;6361;52.120;5.108;2023-03-01T01:14:32;13.98;;;9.95;;
12591;SDS011;6361;52.120;5.108;2023-03-01T01:16:57;18.98;;;12.88;;
12591;SDS011;6361;52.120;5.108;2023-03-01T01:19:23;16.17;;;11.35;;
12591;SDS011;6361;52.120;5.108;2023-03-01T01:21:48;17.67;;;13.00;;
12591;SDS011;6361;52.120;5.108;2023-03-01T01:24:14;18.98;;;13.68;;
12591;SDS011;6361;52.120;5.108;2023-03-01T01:26:40;16.02;;;12.10;;
12591;SDS011;6361;52.120;5.108;2023-03-01T01:29:06;19.30;;;12.05;;
12591;SDS011;6361;52.120;5.108;2023-03-01T01:31:32;18.92;;;13.77;;
12591;SDS011;6361;52.120;5.108;2023-03-01T01:33:59;16.55;;;12.18;;
12591;SDS011;6361;52.120;5.108;2023-03-01T01:36:25;18.38;;;12.25;;
12591;SDS011;6361;52.120;5.108;2023-03-01T01:38:51;15.93;;;11.32;;
12591;SDS011;6361;52.120;5.108;2023-03-01T01:41:16;13.98;;;10.25;;
12591;SDS011;6361;52.120;5.108;2023-03-01T01:43:46;17.75;;;13.57;;
12591;SDS011;6361;52.120;5.108;2023-03-01T01:46:15;20.65;;;13.35;;
12591;SDS011;6361;52.120;5.108;2023-03-01T01:48:43;15.48;;;11.77;;
12591;SDS011;6361;52.120;5.108;2023-03-01T01:51:17;20.20;;;13.57;;
12591;SDS011;6361;52.120;5.108;2023-03-01T01:53:45;23.60;;;13.02;;
12591;SDS011;6361;52.120;5.108;2023-03-01T01:56:12;17.20;;;13.40;;
12591;SDS011;6361;52.120;5.108;2023-03-01T01:58:39;17.23;;;13.23;;
12591;SDS011;6361;52.120;5.108;2023-03-01T02:01:05;15.68;;;11.98;;
12591;SDS011;6361;52.120;5.108;2023-03-01T02:03:31;16.42;;;11.73;;
12591;SDS011;6361;52.120;5.108;2023-03-01T02:06:19;18.92;;;13.30;;
12591;SDS011;6361;52.120;5.108;2023-03-01T02:08:48;16.23;;;13.02;;
12591;SDS011;6361;52.120;5.108;2023-03-01T02:11:14;16.95;;;12.57;;
12591;SDS011;6361;52.120;5.108;2023-03-01T02:13:40;18.17;;;12.50;;
12591;SDS011;6361;52.120;5.108;2023-03-01T02:16:10;16.48;;;12.15;;
12591;SDS011;6361;52.120;5.108;2023-03-01T02:18:37;19.15;;;13.68;;
12591;SDS011;6361;52.120;5.108;2023-03-01T02:23:28;18.30;;;14.10;;
12591;SDS011;6361;52.120;5.108;2023-03-01T02:28:46;20.95;;;14.35;;
12591;SDS011;6361;52.120;5.108;2023-03-01T02:31:14;20.10;;;13.85;;
12591;SDS011;6361;52.120;5.108;2023-03-01T02:34:00;16.58;;;13.00;;
12591;SDS011;6361;52.120;5.108;2023-03-01T02:36:30;17.50;;;14.00;;
12591;SDS011;6361;52.120;5.108;2023-03-01T02:38:58;20.33;;;14.60;;
12591;SDS011;6361;52.120;5.108;2023-03-01T02:41:24;20.17;;;14.45;;
12591;SDS011;6361;52.120;5.108;2023-03-01T02:43:51;20.92;;;14.77;;
12591;SDS011;6361;52.120;5.108;2023-03-01T02:46:18;19.00;;;14.48;;
12591;SDS011;6361;52.120;5.108;2023-03-01T02:48:46;20.23;;;13.50;;
12591;SDS011;6361;52.120;5.108;2023-03-01T02:51:27;19.30;;;13.40;;
12591;SDS011;6361;52.120;5.108;2023-03-01T02:54:20;20.75;;;14.93;;
12591;SDS011;6361;52.120;5.108;2023-03-01T02:56:48;21.92;;;14.50;;
12591;SDS011;6361;52.120;5.108;2023-03-01T02:59:15;19.83;;;13.82;;
12591;SDS011;6361;52.120;5.108;2023-03-01T03:01:41;19.95;;;14.95;;
12591;SDS011;6361;52.120;5.108;2023-03-01T03:04:09;20.92;;;14.70;;
12591;SDS011;6361;52.120;5.108;2023-03-01T03:06:36;19.90;;;13.90;;
12591;SDS011;6361;52.120;5.108;2023-03-01T03:09:03;19.25;;;15.07;;
12591;SDS011;6361;52.120;5.108;2023-03-01T03:11:29;28.08;;;16.60;;
12591;SDS011;6361;52.120;5.108;2023-03-01T03:13:55;20.02;;;15.13;;
12591;SDS011;6361;52.120;5.108;2023-03-01T03:16:21;26.83;;;16.15;;
12591;SDS011;6361;52.120;5.108;2023-03-01T03:18:46;18.40;;;13.38;;
12591;SDS011;6361;52.120;5.108;2023-03-01T03:21:12;21.23;;;15.57;;
12591;SDS011;6361;52.120;5.108;2023-03-01T03:23:38;19.85;;;15.02;;
12591;SDS011;6361;52.120;5.108;2023-03-01T03:26:04;20.52;;;14.88;;
12591;SDS011;6361;52.120;5.108;2023-03-01T03:28:30;19.67;;;14.30;;
12591;SDS011;6361;52.120;5.108;2023-03-01T03:30:59;18.08;;;14.07;;
12591;SDS011;6361;52.120;5.108;2023-03-01T03:33:31;19.08;;;14.38;;
12591;SDS011;6361;52.120;5.108;2023-03-01T03:35:57;21.48;;;15.05;;
12591;SDS011;6361;52.120;5.108;2023-03-01T03:38:22;20.05;;;14.45;;
12591;SDS011;6361;52.120;5.108;2023-03-01T03:40:49;21.25;;;15.05;;
12591;SDS011;6361;52.120;5.108;2023-03-01T03:43:16;19.88;;;14.10;;
12591;SDS011;6361;52.120;5.108;2023-03-01T03:45:44;21.83;;;15.95;;
12591;SDS011;6361;52.120;5.108;2023-03-01T03:48:10;20.85;;;14.48;;
12591;SDS011;6361;52.120;5.108;2023-03-01T03:50:36;21.52;;;14.98;;
12591;SDS011;6361;52.120;5.108;2023-03-01T03:53:03;22.00;;;16.52;;
12591;SDS011;6361;52.120;5.108;2023-03-01T03:55:31;18.98;;;14.32;;
12591;SDS011;6361;52.120;5.108;2023-03-01T03:57:58;20.88;;;15.82;;
12591;SDS011;6361;52.120;5.108;2023-03-01T04:00:27;22.10;;;16.05;;
12591;SDS011;6361;52.120;5.108;2023-03-01T04:02:53;20.35;;;14.25;;
12591;SDS011;6361;52.120;5.108;2023-03-01T04:05:21;21.48;;;14.32;;
12591;SDS011;6361;52.120;5.108;2023-03-01T04:07:47;22.40;;;15.07;;
12591;SDS011;6361;52.120;5.108;2023-03-01T04:10:16;20.42;;;14.77;;
12591;SDS011;6361;52.120;5.108;2023-03-01T04:12:42;20.55;;;14.00;;
12591;SDS011;6361;52.120;5.108;2023-03-01T04:15:08;24.15;;;15.50;;
12591;SDS011;6361;52.120;5.108;2023-03-01T04:17:47;21.90;;;16.27;;
12591;SDS011;6361;52.120;5.108;2023-03-01T04:20:13;21.40;;;14.57;;
12591;SDS011;6361;52.120;5.108;2023-03-01T04:22:50;24.25;;;16.00;;
12591;SDS011;6361;52.120;5.108;2023-03-01T04:25:25;19.90;;;15.02;;
12591;SDS011;6361;52.120;5.108;2023-03-01T04:27:50;21.05;;;14.20;;
12591;SDS011;6361;52.120;5.108;2023-03-01T04:30:16;20.17;;;13.98;;
12591;SDS011;6361;52.120;5.108;2023-03-01T04:32:41;24.10;;;15.75;;
12591;SDS011;6361;52.120;5.108;2023-03-01T04:35:07;21.80;;;14.93;;
12591;SDS011;6361;52.120;5.108;2023-03-01T04:37:33;19.65;;;13.40;;
12591;SDS011;6361;52.120;5.108;2023-03-01T04:39:59;24.40;;;15.80;;
12591;SDS011;6361;52.120;5.108;2023-03-01T04:42:25;24.58;;;16.30;;
12591;SDS011;6361;52.120;5.108;2023-03-01T04:44:51;24.48;;;15.77;;
12591;SDS011;6361;52.120;5.108;2023-03-01T04:47:19;25.13;;;16.17;;
12591;SDS011;6361;52.120;5.108;2023-03-01T04:49:44;25.27;;;16.92;;
12591;SDS011;6361;52.120;5.108;2023-03-01T04:52:09;24.00;;;16.23;;
12591;SDS011;6361;52.120;5.108;2023-03-01T04:54:35;26.38;;;15.75;;
12591;SDS011;6361;52.120;5.108;2023-03-01T04:57:01;24.85;;;16.58;;
12591;SDS011;6361;52.120;5.108;2023-03-01T04:59:27;21.15;;;15.55;;
12591;SDS011;6361;52.120;5.108;2023-03-01T05:01:53;76.18;;;46.15;;
12591;SDS011;6361;52.120;5.108;2023-03-01T05:04:20;62.70;;;39.78;;
12591;SDS011;6361;52.120;5.108;2023-03-01T05:06:46;26.88;;;17.70;;
12591;SDS011;6361;52.120;5.108;2023-03-01T05:09:11;18.98;;;13.60;;
12591;SDS011;6361;52.120;5.108;2023-03-01T05:11:37;21.65;;;14.48;;
12591;SDS011;6361;52.120;5.108;2023-03-01T05:14:03;23.75;;;15.25;;
12591;SDS011;6361;52.120;5.108;2023-03-01T05:16:32;22.30;;;16.85;;
12591;SDS011;6361;52.120;5.108;2023-03-01T05:18:57;23.73;;;16.30;;
12591;SDS011;6361;52.120;5.108;2023-03-01T05:21:23;23.17;;;15.40;;
12591;SDS011;6361;52.120;5.108;2023-03-01T05:23:49;21.48;;;14.73;;
12591;SDS011;6361;52.120;5.108;2023-03-01T05:26:15;25.38;;;14.65;;
12591;SDS011;6361;52.120;5.108;2023-03-01T05:28:42;19.55;;;14.10;;
12591;SDS011;6361;52.120;5.108;2023-03-01T05:31:09;23.25;;;16.00;;
12591;SDS011;6361;52.120;5.108;2023-03-01T05:33:38;19.58;;;14.63;;
12591;SDS011;6361;52.120;5.108;2023-03-01T05:36:04;24.45;;;15.57;;
12591;SDS011;6361;52.120;5.108;2023-03-01T05:38:31;22.13;;;14.18;;
12591;SDS011;6361;52.120;5.108;2023-03-01T05:40:56;19.95;;;13.73;;
12591;SDS011;6361;52.120;5.108;2023-03-01T05:43:21;20.42;;;15.13;;
12591;SDS011;6361;52.120;5.108;2023-03-01T05:45:47;23.60;;;15.93;;
12591;SDS011;6361;52.120;5.108;2023-03-01T05:48:13;19.88;;;14.13;;
12591;SDS011;6361;52.120;5.108;2023-03-01T05:50:40;22.33;;;15.98;;
12591;SDS011;6361;52.120;5.108;2023-03-01T05:53:13;22.50;;;15.15;;
12591;SDS011;6361;52.120;5.108;2023-03-01T05:55:40;21.95;;;15.30;;
12591;SDS011;6361;52.120;5.108;2023-03-01T05:58:07;21.63;;;14.52;;
12591;SDS011;6361;52.120;5.108;2023-03-01T06:00:36;20.88;;;14.52;;
12591;SDS011;6361;52.120;5.108;2023-03-01T06:03:01;20.83;;;13.52;;
12591;SDS011;6361;52.120;5.108;2023-03-01T06:05:27;18.83;;;13.93;;
12591;SDS011;6361;52.120;5.108;2023-03-01T06:07:53;21.63;;;14.77;;
12591;SDS011;6361;52.120;5.108;2023-03-01T06:10:19;20.40;;;14.60;;
12591;SDS011;6361;52.120;5.108;2023-03-01T06:12:48;92.93;;;52.35;;
12591;SDS011;6361;52.120;5.108;2023-03-01T06:15:14;32.67;;;20.90;;
12591;SDS011;6361;52.120;5.108;2023-03-01T06:17:41;26.83;;;17.65;;
12591;SDS011;6361;52.120;5.108;2023-03-01T06:20:13;27.67;;;17.17;;
12591;SDS011;6361;52.120;5.108;2023-03-01T06:22:43;25.25;;;16.77;;
12591;SDS011;6361;52.120;5.108;2023-03-01T06:25:09;26.98;;;17.35;;
12591;SDS011;6361;52.120;5.108;2023-03-01T06:27:35;24.23;;;16.98;;
12591;SDS011;6361;52.120;5.108;2023-03-01T06:30:02;21.52;;;14.98;;
12591;SDS011;6361;52.120;5.108;2023-03-01T06:32:28;22.85;;;15.15;;
12591;SDS011;6361;52.120;5.108;2023-03-01T06:34:53;22.23;;;16.60;;
12591;SDS011;6361;52.120;5.108;2023-03-01T06:37:19;22.60;;;15.45;;
12591;SDS011;6361;52.120;5.108;2023-03-01T06:39:44;25.27;;;16.98;;
12591;SDS011;6361;52.120;5.108;2023-03-01T06:42:09;22.88;;;15.98;;
12591;SDS011;6361;52.120;5.108;2023-03-01T06:44:35;24.70;;;16.73;;
12591;SDS011;6361;52.120;5.108;2023-03-01T06:47:01;25.27;;;15.82;;
12591;SDS011;6361;52.120;5.108;2023-03-01T06:49:26;24.60;;;15.63;;
12591;SDS011;6361;52.120;5.108;2023-03-01T06:51:52;23.30;;;15.32;;
12591;SDS011;6361;52.120;5.108;2023-03-01T06:54:17;21.88;;;15.65;;
12591;SDS011;6361;52.120;5.108;2023-03-01T06:56:43;27.20;;;18.00;;
12591;SDS011;6361;52.120;5.108;2023-03-01T06:59:11;28.92;;;17.63;;
12591;SDS011;6361;52.120;5.108;2023-03-01T07:01:36;27.60;;;19.20;;
12591;SDS011;6361;52.120;5.108;2023-03-01T07:04:02;29.90;;;18.40;;
12591;SDS011;6361;52.120;5.108;2023-03-01T07:06:27;29.13;;;18.80;;
12591;SDS011;6361;52.120;5.108;2023-03-01T07:08:52;34.15;;;21.08;;
12591;SDS011;6361;52.120;5.108;2023-03-01T07:11:18;53.20;;;33.13;;
12591;SDS011;6361;52.120;5.108;2023-03-01T07:13:43;34.78;;;20.23;;
12591;SDS011;6361;52.120;5.108;2023-03-01T07:16:08;33.28;;;20.08;;
12591;SDS011;6361;52.120;5.108;2023-03-01T07:18:34;31.70;;;19.88;;
12591;SDS011;6361;52.120;5.108;2023-03-01T07:21:09;29.88;;;19.95;;
12591;SDS011;6361;52.120;5.108;2023-03-01T07:23:36;30.17;;;20.67;;
12591;SDS011;6361;52.120;5.108;2023-03-01T07:26:01;28.70;;;19.38;;
12591;SDS011;6361;52.120;5.108;2023-03-01T07:28:27;31.88;;;20.48;;
12591;SDS011;6361;52.120;5.108;2023-03-01T07:30:53;33.55;;;20.55;;
12591;SDS011;6361;52.120;5.108;2023-03-01T07:33:18;32.38;;;20.35;;
12591;SDS011;6361;52.120;5.108;2023-03-01T07:35:44;31.10;;;19.73;;
12591;SDS011;6361;52.120;5.108;2023-03-01T07:38:09;34.33;;;20.15;;
12591;SDS011;6361;52.120;5.108;2023-03-01T07:40:34;32.22;;;20.98;;
12591;SDS011;6361;52.120;5.108;2023-03-01T07:43:00;33.10;;;20.92;;
12591;SDS011;6361;52.120;5.108;2023-03-01T07:45:27;32.30;;;21.13;;
12591;SDS011;6361;52.120;5.108;2023-03-01T07:47:54;36.47;;;22.45;;
12591;SDS011;6361;52.120;5.108;2023-03-01T07:50:20;37.28;;;21.05;;
12591;SDS011;6361;52.120;5.108;2023-03-01T07:52:46;33.83;;;20.77;;
12591;SDS011;6361;52.120;5.108;2023-03-01T07:55:12;30.02;;;20.50;;
12591;SDS011;6361;52.120;5.108;2023-03-01T07:57:37;33.45;;;20.65;;
12591;SDS011;6361;52.120;5.108;2023-03-01T08:00:03;91.80;;;56.75;;
12591;SDS011;6361;52.120;5.108;2023-03-01T08:02:29;46.90;;;29.38;;
12591;SDS011;6361;52.120;5.108;2023-03-01T08:04:54;33.17;;;21.35;;
12591;SDS011;6361;52.120;5.108;2023-03-01T08:07:19;30.35;;;20.10;;
12591;SDS011;6361;52.120;5.108;2023-03-01T08:09:45;30.35;;;19.75;;
12591;SDS011;6361;52.120;5.108;2023-03-01T08:12:10;30.05;;;18.83;;
12591;SDS011;6361;52.120;5.108;2023-03-01T08:14:35;29.70;;;18.75;;
12591;SDS011;6361;52.120;5.108;2023-03-01T08:17:01;25.65;;;17.55;;
12591;SDS011;6361;52.120;5.108;2023-03-01T08:19:28;28.42;;;18.73;;
12591;SDS011;6361;52.120;5.108;2023-03-01T08:21:53;30.50;;;18.38;;
12591;SDS011;6361;52.120;5.108;2023-03-01T08:24:19;30.17;;;19.75;;
12591;SDS011;6361;52.120;5.108;2023-03-01T08:26:44;28.80;;;18.35;;
12591;SDS011;6361;52.120;5.108;2023-03-01T08:29:10;71.38;;;43.97;;
12591;SDS011;6361;52.120;5.108;2023-03-01T08:31:36;35.92;;;22.38;;
12591;SDS011;6361;52.120;5.108;2023-03-01T08:34:05;27.23;;;17.50;;
12591;SDS011;6361;52.120;5.108;2023-03-01T08:36:32;26.33;;;16.35;;
12591;SDS011;6361;52.120;5.108;2023-03-01T08:39:02;26.67;;;16.73;;
12591;SDS011;6361;52.120;5.108;2023-03-01T08:41:28;30.08;;;18.30;;
12591;SDS011;6361;52.120;5.108;2023-03-01T08:43:53;24.45;;;15.63;;
12591;SDS011;6361;52.120;5.108;2023-03-01T08:46:23;21.52;;;15.10;;
12591;SDS011;6361;52.120;5.108;2023-03-01T08:48:50;22.63;;;16.00;;
12591;SDS011;6361;52.120;5.108;2023-03-01T08:51:17;24.15;;;14.77;;
12591;SDS011;6361;52.120;5.108;2023-03-01T08:53:43;19.25;;;13.80;;
12591;SDS011;6361;52.120;5.108;2023-03-01T08:56:09;19.80;;;12.93;;
12591;SDS011;6361;52.120;5.108;2023-03-01T08:58:35;19.42;;;12.57;;
12591;SDS011;6361;52.120;5.108;2023-03-01T09:01:01;19.73;;;11.88;;
12591;SDS011;6361;52.120;5.108;2023-03-01T09:03:32;16.15;;;10.98;;
12591;SDS011;6361;52.120;5.108;2023-03-01T09:06:00;13.30;;;9.70;;
12591;SDS011;6361;52.120;5.108;2023-03-01T09:08:26;13.02;;;8.82;;
12591;SDS011;6361;52.120;5.108;2023-03-01T09:10:52;13.30;;;8.55;;
12591;SDS011;6361;52.120;5.108;2023-03-01T09:13:17;14.38;;;9.18;;
12591;SDS011;6361;52.120;5.108;2023-03-01T09:15:43;12.20;;;8.13;;
12591;SDS011;6361;52.120;5.108;2023-03-01T09:18:08;13.70;;;9.10;;
12591;SDS011;6361;52.120;5.108;2023-03-01T09:20:33;15.02;;;8.98;;
12591;SDS011;6361;52.120;5.108;2023-03-01T09:22:59;16.02;;;9.27;;
12591;SDS011;6361;52.120;5.108;2023-03-01T09:25:24;12.57;;;9.00;;
12591;SDS011;6361;52.120;5.108;2023-03-01T09:27:51;13.05;;;9.45;;
12591;SDS011;6361;52.120;5.108;2023-03-01T09:30:17;13.90;;;9.35;;
12591;SDS011;6361;52.120;5.108;2023-03-01T09:32:42;13.30;;;9.45;;
12591;SDS011;6361;52.120;5.108;2023-03-01T09:35:09;15.43;;;10.18;;
12591;SDS011;6361;52.120;5.108;2023-03-01T09:37:36;13.20;;;8.98;;
12591;SDS011;6361;52.120;5.108;2023-03-01T09:40:03;21.33;;;10.77;;
12591;SDS011;6361;52.120;5.108;2023-03-01T09:42:32;16.23;;;10.27;;
12591;SDS011;6361;52.120;5.108;2023-03-01T09:45:06;15.77;;;10.15;;
12591;SDS011;6361;52.120;5.108;2023-03-01T09:47:36;16.05;;;9.90;;
12591;SDS011;6361;52.120;5.108;2023-03-01T09:50:04;15.48;;;9.02;;
12591;SDS011;6361;52.120;5.108;2023-03-01T09:52:41;15.65;;;9.48;;
12591;SDS011;6361;52.120;5.108;2023-03-01T09:55:27;11.68;;;7.57;;
12591;SDS011;6361;52.120;5.108;2023-03-01T09:57:57;13.32;;;8.25;;
12591;SDS011;6361;52.120;5.108;2023-03-01T10:00:44;11.23;;;7.30;;
12591;SDS011;6361;52.120;5.108;2023-03-01T10:08:29;9.25;;;6.75;;
12591;SDS011;6361;52.120;5.108;2023-03-01T10:11:00;10.30;;;7.15;;
12591;SDS011;6361;52.120;5.108;2023-03-01T10:13:32;8.48;;;6.18;;
12591;SDS011;6361;52.120;5.108;2023-03-01T10:18:31;9.40;;;6.03;;
12591;SDS011;6361;52.120;5.108;2023-03-01T10:20:59;8.30;;;6.07;;
12591;SDS011;6361;52.120;5.108;2023-03-01T10:23:27;12.52;;;7.35;;
12591;SDS011;6361;52.120;5.108;2023-03-01T10:25:59;11.15;;;6.20;;
12591;SDS011;6361;52.120;5.108;2023-03-01T10:31:32;9.40;;;6.68;;
12591;SDS011;6361;52.120;5.108;2023-03-01T10:34:28;10.93;;;6.55;;
12591;SDS011;6361;52.120;5.108;2023-03-01T10:36:56;14.57;;;7.28;;
12591;SDS011;6361;52.120;5.108;2023-03-01T10:39:26;10.40;;;6.97;;
12591;SDS011;6361;52.120;5.108;2023-03-01T10:47:13;8.55;;;6.07;;
12591;SDS011;6361;52.120;5.108;2023-03-01T10:49:51;9.40;;;6.07;;
12591;SDS011;6361;52.120;5.108;2023-03-01T10:52:23;8.88;;;6.40;;
12591;SDS011;6361;52.120;5.108;2023-03-01T10:54:55;10.85;;;6.30;;
12591;SDS011;6361;52.120;5.108;2023-03-01T10:57:55;10.00;;;6.15;;
12591;SDS011;6361;52.120;5.108;2023-03-01T11:00:14;9.25;;;5.75;;
12591;SDS011;6361;52.120;5.108;2023-03-01T11:02:48;10.77;;;5.85;;
12591;SDS011;6361;52.120;5.108;2023-03-01T11:05:24;9.80;;;5.88;;
12591;SDS011;6361;52.120;5.108;2023-03-01T11:07:59;8.32;;;5.43;;
12591;SDS011;6361;52.120;5.108;2023-03-01T11:15:41;13.65;;;6.28;;
12591;SDS011;6361;52.120;5.108;2023-03-01T11:18:17;7.22;;;5.60;;
12591;SDS011;6361;52.120;5.108;2023-03-01T11:20:45;9.43;;;5.43;;
12591;SDS011;6361;52.120;5.108;2023-03-01T11:23:12;12.27;;;5.80;;
12591;SDS011;6361;52.120;5.108;2023-03-01T11:25:43;10.65;;;5.68;;
12591;SDS011;6361;52.120;5.108;2023-03-01T11:28:13;10.82;;;6.13;;
12591;SDS011;6361;52.120;5.108;2023-03-01T11:30:44;8.75;;;6.25;;
12591;SDS011;6361;52.120;5.108;2023-03-01T11:34:09;9.98;;;5.88;;
12591;SDS011;6361;52.120;5.108;2023-03-01T11:38:48;8.50;;;5.95;;
12591;SDS011;6361;52.120;5.108;2023-03-01T11:41:15;9.07;;;5.90;;
12591;SDS011;6361;52.120;5.108;2023-03-01T11:43:56;8.73;;;5.40;;
12591;SDS011;6361;52.120;5.108;2023-03-01T12:05:06;6.95;;;4.65;;
12591;SDS011;6361;52.120;5.108;2023-03-01T12:10:35;8.95;;;5.00;;
12591;SDS011;6361;52.120;5.108;2023-03-01T12:32:24;7.90;;;4.90;;
12591;SDS011;6361;52.120;5.108;2023-03-01T12:35:33;7.38;;;4.88;;
12591;SDS011;6361;52.120;5.108;2023-03-01T12:49:43;7.40;;;5.10;;
12591;SDS011;6361;52.120;5.108;2023-03-01T12:52:15;7.85;;;5.20;;
12591;SDS011;6361;52.120;5.108;2023-03-01T12:54:41;7.32;;;5.28;;
12591;SDS011;6361;52.120;5.108;2023-03-01T12:57:21;8.65;;;4.80;;
12591;SDS011;6361;52.120;5.108;2023-03-01T13:00:17;11.40;;;5.95;;
12591;SDS011;6361;52.120;5.108;2023-03-01T13:02:48;11.00;;;5.43;;
12591;SDS011;6361;52.120;5.108;2023-03-01T13:11:02;6.35;;;4.68;;
12591;SDS011;6361;52.120;5.108;2023-03-01T13:13:29;7.13;;;5.18;;
12591;SDS011;6361;52.120;5.108;2023-03-01T13:15:54;8.80;;;5.35;;
12591;SDS011;6361;52.120;5.108;2023-03-01T13:20:51;6.80;;;5.03;;
12591;SDS011;6361;52.120;5.108;2023-03-01T13:39:03;6.95;;;4.50;;
12591;SDS011;6361;52.120;5.108;2023-03-01T13:46:49;7.90;;;4.93;;
12591;SDS011;6361;52.120;5.108;2023-03-01T13:49:16;8.20;;;4.43;;
12591;SDS011;6361;52.120;5.108;2023-03-01T13:51:46;7.32;;;4.70;;
12591;SDS011;6361;52.120;5.108;2023-03-01T13:54:12;6.60;;;4.40;;
12591;SDS011;6361;52.120;5.108;2023-03-01T13:56:39;6.30;;;4.30;;
12591;SDS011;6361;52.120;5.108;2023-03-01T13:59:18;5.72;;;4.75;;
12591;SDS011;6361;52.120;5.108;2023-03-01T14:01:51;6.45;;;4.88;;
12591;SDS011;6361;52.120;5.108;2023-03-01T14:04:19;7.78;;;4.35;;
12591;SDS011;6361;52.120;5.108;2023-03-01T14:09:44;6.90;;;4.80;;
12591;SDS011;6361;52.120;5.108;2023-03-01T14:15:33;6.63;;;4.47;;
12591;SDS011;6361;52.120;5.108;2023-03-01T14:20:39;10.52;;;4.85;;
12591;SDS011;6361;52.120;5.108;2023-03-01T14:23:16;6.13;;;4.40;;
12591;SDS011;6361;52.120;5.108;2023-03-01T14:25:56;6.55;;;4.63;;
12591;SDS011;6361;52.120;5.108;2023-03-01T14:28:32;7.43;;;5.03;;
12591;SDS011;6361;52.120;5.108;2023-03-01T14:31:02;7.40;;;5.10;;
12591;SDS011;6361;52.120;5.108;2023-03-01T14:36:05;7.05;;;4.97;;
12591;SDS011;6361;52.120;5.108;2023-03-01T14:41:09;7.15;;;4.88;;
12591;SDS011;6361;52.120;5.108;2023-03-01T14:43:35;7.80;;;4.82;;
12591;SDS011;6361;52.120;5.108;2023-03-01T14:46:02;8.20;;;5.15;;
12591;SDS011;6361;52.120;5.108;2023-03-01T14:48:28;8.65;;;5.28;;
12591;SDS011;6361;52.120;5.108;2023-03-01T14:50:54;7.40;;;4.85;;
12591;SDS011;6361;52.120;5.108;2023-03-01T14:53:30;7.78;;;4.88;;
12591;SDS011;6361;52.120;5.108;2023-03-01T14:58:23;5.93;;;4.75;;
12591;SDS011;6361;52.120;5.108;2023-03-01T15:00:53;5.55;;;3.95;;
12591;SDS011;6361;52.120;5.108;2023-03-01T15:03:25;7.13;;;4.57;;
12591;SDS011;6361;52.120;5.108;2023-03-01T15:05:54;7.97;;;3.95;;
12591;SDS011;6361;52.120;5.108;2023-03-01T15:08:21;7.60;;;4.10;;
12591;SDS011;6361;52.120;5.108;2023-03-01T15:10:56;7.85;;;4.93;;
12591;SDS011;6361;52.120;5.108;2023-03-01T15:13:24;6.93;;;4.75;;
12591;SDS011;6361;52.120;5.108;2023-03-01T15:15:51;7.65;;;4.72;;
12591;SDS011;6361;52.120;5.108;2023-03-01T15:18:18;8.32;;;5.03;;
12591;SDS011;6361;52.120;5.108;2023-03-01T15:20:45;7.22;;;4.80;;
12591;SDS011;6361;52.120;5.108;2023-03-01T15:23:21;7.68;;;4.60;;
12591;SDS011;6361;52.120;5.108;2023-03-01T15:25:49;7.13;;;4.50;;
12591;SDS011;6361;52.120;5.108;2023-03-01T15:28:21;8.00;;;5.03;;
12591;SDS011;6361;52.120;5.108;2023-03-01T15:30:52;10.40;;;5.47;;
12591;SDS011;6361;52.120;5.108;2023-03-01T15:35:55;6.82;;;4.30;;
12591;SDS011;6361;52.120;5.108;2023-03-01T15:38:49;6.80;;;4.40;;
12591;SDS011;6361;52.120;5.108;2023-03-01T15:41:23;6.47;;;4.47;;
12591;SDS011;6361;52.120;5.108;2023-03-01T15:43:56;6.57;;;4.78;;
12591;SDS011;6361;52.120;5.108;2023-03-01T15:46:32;7.85;;;5.10;;
12591;SDS011;6361;52.120;5.108;2023-03-01T15:48:59;9.32;;;5.88;;
12591;SDS011;6361;52.120;5.108;2023-03-01T15:51:28;6.88;;;4.65;;
12591;SDS011;6361;52.120;5.108;2023-03-01T15:53:57;11.38;;;5.07;;
12591;SDS011;6361;52.120;5.108;2023-03-01T15:56:24;8.48;;;4.97;;
12591;SDS011;6361;52.120;5.108;2023-03-01T15:58:49;7.15;;;4.68;;
12591;SDS011;6361;52.120;5.108;2023-03-01T16:01:15;10.27;;;5.03;;
12591;SDS011;6361;52.120;5.108;2023-03-01T16:03:42;8.65;;;6.15;;
12591;SDS011;6361;52.120;5.108;2023-03-01T16:06:10;11.98;;;6.18;;
12591;SDS011;6361;52.120;5.108;2023-03-01T16:08:37;10.70;;;5.50;;
12591;SDS011;6361;52.120;5.108;2023-03-01T16:11:04;10.20;;;5.65;;
12591;SDS011;6361;52.120;5.108;2023-03-01T16:13:31;9.43;;;5.95;;
12591;SDS011;6361;52.120;5.108;2023-03-01T16:15:57;13.73;;;6.70;;
12591;SDS011;6361;52.120;5.108;2023-03-01T16:18:22;7.47;;;5.10;;
12591;SDS011;6361;52.120;5.108;2023-03-01T16:20:48;6.75;;;5.00;;
12591;SDS011;6361;52.120;5.108;2023-03-01T16:23:14;9.73;;;5.63;;
12591;SDS011;6361;52.120;5.108;2023-03-01T16:25:39;7.80;;;5.57;;
12591;SDS011;6361;52.120;5.108;2023-03-01T16:28:05;12.13;;;6.07;;
12591;SDS011;6361;52.120;5.108;2023-03-01T16:30:33;12.63;;;5.65;;
12591;SDS011;6361;52.120;5.108;2023-03-01T16:33:00;10.35;;;5.78;;
12591;SDS011;6361;52.120;5.108;2023-03-01T16:35:25;7.97;;;5.35;;
12591;SDS011;6361;52.120;5.108;2023-03-01T16:37:50;7.25;;;4.72;;
12591;SDS011;6361;52.120;5.108;2023-03-01T16:40:20;7.03;;;5.00;;
12591;SDS011;6361;52.120;5.108;2023-03-01T16:42:48;10.82;;;6.28;;
12591;SDS011;6361;52.120;5.108;2023-03-01T16:45:13;12.15;;;7.78;;
12591;SDS011;6361;52.120;5.108;2023-03-01T16:47:39;16.52;;;9.85;;
12591;SDS011;6361;52.120;5.108;2023-03-01T16:50:04;12.48;;;6.78;;
12591;SDS011;6361;52.120;5.108;2023-03-01T16:52:30;9.77;;;6.40;;
12591;SDS011;6361;52.120;5.108;2023-03-01T16:54:55;9.10;;;6.72;;
12591;SDS011;6361;52.120;5.108;2023-03-01T16:57:20;10.10;;;6.38;;
12591;SDS011;6361;52.120;5.108;2023-03-01T16:59:46;13.13;;;8.18;;